Time;durP1;ratioP1;P1;durP2;ratioP2;P2;SDS_P1;SDS_P2;PMS_P1;PMS_P2;Temp;Humidity;BMP_temperature;BMP_pressure;BME280_temperature;BME280_humidity;BME280_pressure;Samples;Min_cycle;Max_cycle;Signal;HPM_P1;HPM_P2
2022/11/27 00:01:38;;;;;;;17.23;4.43;;;;;;;5.41;99.04;102465.06;5032938;28;20121;-56
2022/11/27 00:04:09;;;;;;;14.32;4.68;;;;;;;5.41;99.18;102461.59;5030386;28;20038;-55
2022/11/27 00:06:36;;;;;;;15.07;4.40;;;;;;;5.36;99.05;102459.97;5033543;28;20030;-54
2022/11/27 00:09:05;;;;;;;11.05;3.92;;;;;;;5.33;99.24;102460.03;5032581;28;20025;-55
2022/11/27 00:11:31;;;;;;;12.40;4.28;;;;;;;5.33;99.15;102462.69;5033538;28;20052;-53
2022/11/27 00:13:57;;;;;;;13.35;4.32;;;;;;;5.30;99.24;102460.13;5034927;28;20079;-51
2022/11/27 00:16:23;;;;;;;12.18;4.38;;;;;;;5.28;99.34;102456.69;5029209;28;20030;-54
2022/11/27 00:18:49;;;;;;;17.00;4.75;;;;;;;5.24;99.55;102454.16;5034266;28;20040;-55
2022/11/27 00:21:18;;;;;;;11.90;4.03;;;;;;;5.21;99.56;102448.97;5034178;28;20017;-53
2022/11/27 00:23:45;;;;;;;15.95;4.22;;;;;;;5.18;99.63;102440.28;5029498;28;20050;-53
2022/11/27 00:26:10;;;;;;;13.43;4.65;;;;;;;5.15;99.60;102435.09;5031212;28;20053;-52
2022/11/27 00:28:36;;;;;;;12.52;4.22;;;;;;;5.14;99.91;102438.59;5033445;28;20430;-54
2022/11/27 00:31:05;;;;;;;13.23;4.35;;;;;;;5.12;99.91;102435.16;5034075;28;20356;-55
2022/11/27 00:33:31;;;;;;;12.20;4.20;;;;;;;5.10;99.76;102436.13;5034404;28;20045;-54
2022/11/27 00:36:01;;;;;;;16.35;4.93;;;;;;;5.08;99.79;102430.03;5033668;28;20587;-54
2022/11/27 00:38:26;;;;;;;11.90;4.53;;;;;;;5.06;100.00;102429.19;5035156;28;20095;-52
2022/11/27 00:40:52;;;;;;;15.60;4.72;;;;;;;5.04;100.00;102431.88;5038301;28;20042;-52
2022/11/27 00:43:17;;;;;;;13.52;5.15;;;;;;;5.01;100.00;102434.59;5032705;28;20494;-54
2022/11/27 00:45:42;;;;;;;17.52;5.25;;;;;;;4.99;100.00;102424.09;5033364;28;20026;-53
2022/11/27 00:48:07;;;;;;;17.70;5.00;;;;;;;4.97;100.00;102420.66;5041002;28;20217;-54
2022/11/27 00:50:33;;;;;;;20.02;5.53;;;;;;;4.93;100.00;102419.03;5036608;28;20380;-53
2022/11/27 00:52:58;;;;;;;12.88;5.35;;;;;;;4.94;100.00;102420.72;5042935;28;20030;-53
2022/11/27 00:55:24;;;;;;;12.32;5.30;;;;;;;4.92;100.00;102419.06;5028305;28;20096;-55
2022/11/27 00:57:49;;;;;;;17.15;5.60;;;;;;;4.92;100.00;102414.66;5033049;28;20032;-52
2022/11/27 01:00:15;;;;;;;17.00;6.60;;;;;;;4.89;100.00;102404.19;5025549;28;20041;-56
2022/11/27 01:02:41;;;;;;;15.52;5.47;;;;;;;4.89;100.00;102401.56;5033387;28;20060;-52
2022/11/27 01:05:06;;;;;;;14.98;5.60;;;;;;;4.89;100.00;102405.97;5033660;28;20018;-52
2022/11/27 01:07:32;;;;;;;14.93;5.55;;;;;;;4.85;100.00;102397.31;5032758;28;20060;-52
2022/11/27 01:09:57;;;;;;;18.55;5.38;;;;;;;4.85;100.00;102389.41;5032586;28;20025;-53
2022/11/27 01:12:22;;;;;;;17.35;5.78;;;;;;;4.85;100.00;102383.28;5034518;28;20053;-53
2022/11/27 01:14:48;;;;;;;16.83;5.63;;;;;;;4.83;100.00;102385.97;5033688;28;20068;-53
2022/11/27 01:17:13;;;;;;;14.00;5.15;;;;;;;4.82;100.00;102377.19;5034376;28;20072;-52
2022/11/27 01:19:38;;;;;;;17.02;5.80;;;;;;;4.81;100.00;102382.50;5034147;28;20029;-51
2022/11/27 01:22:03;;;;;;;20.25;5.72;;;;;;;4.80;100.00;102381.63;5028162;28;20490;-55
2022/11/27 01:24:29;;;;;;;13.00;5.55;;;;;;;4.79;100.00;102386.94;5031285;28;20017;-54
2022/11/27 01:26:54;;;;;;;17.10;5.85;;;;;;;4.80;100.00;102388.69;5033462;28;20053;-54
2022/11/27 01:29:19;;;;;;;16.10;5.97;;;;;;;4.78;100.00;102387.84;5032277;28;20456;-54
2022/11/27 01:31:45;;;;;;;18.25;5.85;;;;;;;4.77;100.00;102383.50;5034005;28;20021;-54
2022/11/27 01:34:14;;;;;;;21.33;7.03;;;;;;;4.75;100.00;102375.63;5033566;28;20027;-54
2022/11/27 01:36:40;;;;;;;24.23;6.35;;;;;;;4.74;100.00;102367.78;5033094;28;20107;-54
2022/11/27 01:39:05;;;;;;;15.52;5.72;;;;;;;4.74;100.00;102370.41;5031388;28;20467;-51
2022/11/27 01:41:38;;;;;;;19.67;6.22;;;;;;;4.73;100.00;102352.88;5033893;28;20144;-54
2022/11/27 01:44:22;;;;;;;15.70;6.38;;;;;;;4.74;100.00;102346.72;5033478;28;20029;-53
2022/11/27 01:46:53;;;;;;;19.60;5.93;;;;;;;4.71;100.00;102350.28;5032785;28;20029;-51
2022/11/27 01:49:29;;;;;;;17.17;5.63;;;;;;;4.71;100.00;102355.56;5033063;28;20025;-53
2022/11/27 01:52:16;;;;;;;17.48;6.03;;;;;;;4.71;100.00;102347.66;5033271;28;20392;-53
2022/11/27 01:54:55;;;;;;;15.10;5.85;;;;;;;4.71;100.00;102337.13;5024463;28;20039;-53
2022/11/27 01:57:23;;;;;;;13.57;6.30;;;;;;;4.69;100.00;102332.84;5024996;28;20361;-52
2022/11/27 01:59:50;;;;;;;15.80;6.10;;;;;;;4.68;100.00;102329.34;5033487;28;20057;-55
2022/11/27 02:02:16;;;;;;;12.55;5.53;;;;;;;4.68;100.00;102317.94;5033090;28;20114;-53
2022/11/27 02:04:41;;;;;;;19.15;6.32;;;;;;;4.64;100.00;102312.75;5033027;28;20112;-54
2022/11/27 02:07:06;;;;;;;12.43;5.55;;;;;;;4.64;100.00;102304.84;5032383;28;20112;-52
2022/11/27 02:09:32;;;;;;;18.35;5.95;;;;;;;4.62;100.00;102305.81;5041670;28;20025;-52
2022/11/27 02:12:25;;;;;;;15.18;5.68;;;;;;;4.61;100.00;102304.09;5032638;28;20410;-52
2022/11/27 02:15:07;;;;;;;19.17;6.90;;;;;;;4.56;100.00;102292.81;5032886;28;20363;-54
2022/11/27 02:18:07;;;;;;;16.02;6.40;;;;;;;4.54;100.00;102292.00;5032664;28;20029;-53
2022/11/27 02:20:46;;;;;;;14.30;6.57;;;;;;;4.52;100.00;102288.56;5006987;28;20093;-53
2022/11/27 02:23:40;;;;;;;17.25;6.13;;;;;;;4.49;100.00;102286.88;5025385;28;20057;-52
2022/11/27 02:26:42;;;;;;;20.00;6.65;;;;;;;4.48;100.00;102279.03;5030867;28;20501;-53
2022/11/27 02:29:21;;;;;;;14.07;6.95;;;;;;;4.45;100.00;102272.09;5029497;28;20044;-52
2022/11/27 02:31:58;;;;;;;12.80;6.35;;;;;;;4.44;100.00;102270.34;5040726;28;20487;-51
2022/11/27 02:34:26;;;;;;;15.98;7.05;;;;;;;4.41;100.00;102273.94;5040787;28;20048;-52
2022/11/27 02:37:10;;;;;;;17.20;6.80;;;;;;;4.40;100.00;102274.00;5032897;28;20033;-54
2022/11/27 02:39:43;;;;;;;15.00;6.55;;;;;;;4.37;100.00;102267.03;5022712;28;20475;-55
2022/11/27 02:42:15;;;;;;;15.20;6.70;;;;;;;4.36;100.00;102262.66;5032863;28;20032;-54
2022/11/27 02:44:46;;;;;;;18.80;7.60;;;;;;;4.35;100.00;102260.09;5032305;28;20040;-52
2022/11/27 02:47:13;;;;;;;16.40;6.75;;;;;;;4.32;100.00;102255.78;5032539;28;20036;-51
2022/11/27 02:49:41;;;;;;;19.15;7.05;;;;;;;4.30;100.00;102257.59;5032684;28;20429;-53
2022/11/27 02:52:10;;;;;;;19.10;7.70;;;;;;;4.29;100.00;102265.53;5031793;28;20026;-52
2022/11/27 02:54:38;;;;;;;15.13;7.28;;;;;;;4.29;100.00;102270.78;5032554;28;20395;-54
2022/11/27 02:57:07;;;;;;;15.52;6.57;;;;;;;4.28;100.00;102274.31;5021593;28;20052;-53
2022/11/27 02:59:35;;;;;;;14.70;6.70;;;;;;;4.26;100.00;102272.59;5032770;28;20057;-54
2022/11/27 03:02:06;;;;;;;16.67;6.78;;;;;;;4.26;100.00;102280.50;5031568;28;20040;-56
2022/11/27 03:04:41;;;;;;;13.45;6.82;;;;;;;4.26;100.00;102276.97;5032210;28;20030;-55
2022/11/27 03:07:13;;;;;;;20.58;6.60;;;;;;;4.25;100.00;102272.66;5021012;28;20029;-53
2022/11/27 03:09:42;;;;;;;16.48;7.03;;;;;;;4.28;100.00;102280.47;5032119;28;20383;-53
2022/11/27 03:12:10;;;;;;;18.05;6.95;;;;;;;4.26;100.00;102277.88;5032430;28;20391;-52
2022/11/27 03:14:38;;;;;;;15.32;6.45;;;;;;;4.26;100.00;102263.81;5023728;28;20018;-53
2022/11/27 03:17:18;;;;;;;14.35;6.25;;;;;;;4.28;100.00;102259.41;5040036;28;20406;-52
2022/11/27 03:19:59;;;;;;;12.90;6.18;;;;;;;4.31;100.00;102261.09;5031324;28;20030;-55
2022/11/27 03:22:26;;;;;;;17.08;6.72;;;;;;;4.33;99.86;102254.00;5032002;28;20471;-58
2022/11/27 03:24:52;;;;;;;12.73;6.07;;;;;;;4.32;99.81;102255.78;5030723;28;20033;-52
2022/11/27 03:27:24;;;;;;;16.17;6.03;;;;;;;4.32;99.54;102255.78;5031761;28;20510;-53
2022/11/27 03:30:15;;;;;;;15.13;5.75;;;;;;;4.36;99.53;102256.56;5031945;28;20084;-54
2022/11/27 03:32:41;;;;;;;13.93;5.82;;;;;;;4.36;99.15;102259.19;5030980;28;20053;-52
2022/11/27 03:35:09;;;;;;;12.07;5.75;;;;;;;4.36;98.96;102249.50;5024542;28;20080;-55
2022/11/27 03:37:35;;;;;;;14.23;5.80;;;;;;;4.38;98.89;102253.00;5032090;28;20368;-55
2022/11/27 03:40:02;;;;;;;14.77;5.40;;;;;;;4.40;98.50;102243.28;5022840;28;20025;-53
2022/11/27 03:42:44;;;;;;;13.15;5.22;;;;;;;4.43;98.15;102239.72;5034487;28;20021;-55
2022/11/27 03:45:26;;;;;;;12.88;5.60;;;;;;;4.43;98.12;102222.16;5031721;28;20037;-54
2022/11/27 03:48:16;;;;;;;10.45;5.28;;;;;;;4.45;98.07;102224.75;5031749;28;20025;-53
2022/11/27 03:50:58;;;;;;;13.25;5.47;;;;;;;4.45;97.66;102222.97;5031627;28;20034;-54
2022/11/27 03:53:27;;;;;;;12.90;5.25;;;;;;;4.45;97.59;102224.75;5031835;28;20045;-56
2022/11/27 03:56:07;;;;;;;11.35;4.90;;;;;;;4.45;97.52;102225.59;5031664;28;20033;-53
2022/11/27 03:58:42;;;;;;;13.90;5.13;;;;;;;4.47;97.18;102222.91;5027828;28;20045;-53
2022/11/27 04:01:11;;;;;;;12.23;5.13;;;;;;;4.48;97.25;102224.66;5031764;28;20029;-54
2022/11/27 04:03:37;;;;;;;15.57;5.20;;;;;;;4.49;96.88;102222.88;5031205;28;20071;-55
2022/11/27 04:06:02;;;;;;;11.55;4.80;;;;;;;4.49;96.76;102229.00;5031886;28;20037;-55
2022/11/27 04:08:28;;;;;;;11.52;5.28;;;;;;;4.50;96.62;102233.34;5031006;28;20053;-52
2022/11/27 04:10:53;;;;;;;9.07;4.63;;;;;;;4.51;96.60;102237.69;5040719;28;20043;-54
2022/11/27 04:13:18;;;;;;;12.20;4.80;;;;;;;4.53;96.36;102233.28;5031268;28;20025;-53
2022/11/27 04:15:44;;;;;;;12.63;4.63;;;;;;;4.53;96.10;102241.16;5031530;28;20033;-55
2022/11/27 04:18:09;;;;;;;11.10;4.90;;;;;;;4.53;96.13;102243.81;5031419;28;20025;-55
2022/11/27 04:20:34;;;;;;;10.90;4.63;;;;;;;4.54;96.05;102255.19;5029937;28;20036;-54
2022/11/27 04:23:00;;;;;;;10.55;4.15;;;;;;;4.53;96.05;102248.19;5031192;28;20040;-56
2022/11/27 04:25:25;;;;;;;10.43;4.60;;;;;;;4.53;96.12;102246.44;5027587;28;20423;-53
2022/11/27 04:27:50;;;;;;;12.82;4.82;;;;;;;4.52;96.16;102242.06;5030189;28;20475;-53
2022/11/27 04:30:16;;;;;;;10.70;4.60;;;;;;;4.52;96.12;102234.16;5037937;28;20052;-55
2022/11/27 04:32:41;;;;;;;12.70;4.97;;;;;;;4.52;96.03;102241.22;5032409;28;20105;-54
2022/11/27 04:35:08;;;;;;;9.02;4.43;;;;;;;4.51;96.00;102232.44;5034953;28;20071;-53
2022/11/27 04:37:33;;;;;;;11.30;5.03;;;;;;;4.52;96.07;102239.44;5034511;28;20056;-51
2022/11/27 04:39:58;;;;;;;10.60;4.55;;;;;;;4.49;96.23;102236.88;5034490;28;20463;-55
2022/11/27 04:42:24;;;;;;;11.25;4.63;;;;;;;4.52;96.25;102243.84;5034871;28;20352;-53
2022/11/27 04:44:49;;;;;;;10.30;4.55;;;;;;;4.52;96.15;102236.81;5034362;28;20033;-54
2022/11/27 04:47:14;;;;;;;10.13;4.38;;;;;;;4.52;96.21;102231.53;5035764;28;20022;-52
2022/11/27 04:49:40;;;;;;;10.65;4.75;;;;;;;4.52;96.07;102223.66;5034353;28;20044;-52
2022/11/27 04:52:05;;;;;;;11.77;4.90;;;;;;;4.52;96.01;102217.53;5039423;28;20013;-52
2022/11/27 04:54:31;;;;;;;10.65;4.75;;;;;;;4.52;96.34;102218.38;5036880;28;20124;-56
2022/11/27 04:56:56;;;;;;;8.93;4.63;;;;;;;4.53;96.16;102214.84;5035597;28;20383;-52
2022/11/27 04:59:22;;;;;;;8.30;4.90;;;;;;;4.54;96.18;102206.03;5025817;28;20033;-54
2022/11/27 05:01:47;;;;;;;12.15;4.60;;;;;;;4.53;96.08;102204.34;5027675;28;20096;-52
2022/11/27 05:04:13;;;;;;;13.02;4.80;;;;;;;4.56;95.81;102209.50;5034969;28;20029;-55
2022/11/27 05:06:38;;;;;;;11.43;5.00;;;;;;;4.57;95.94;102205.09;5032664;28;20029;-55
2022/11/27 05:09:03;;;;;;;10.73;4.68;;;;;;;4.57;95.69;102194.56;5027054;28;20499;-54
2022/11/27 05:11:29;;;;;;;9.55;4.50;;;;;;;4.58;95.79;102198.91;5034142;28;20056;-51
2022/11/27 05:16:39;;;;;;;8.95;4.85;;;;;;;4.59;95.51;102190.13;5033499;28;20441;-54
2022/11/27 05:19:04;;;;;;;10.18;4.50;;;;;;;4.61;95.56;102183.03;5034183;28;20021;-55
2022/11/27 05:21:29;;;;;;;9.90;4.82;;;;;;;4.61;95.73;102177.78;5027697;28;20021;-52
2022/11/27 05:23:55;;;;;;;12.90;4.70;;;;;;;4.61;95.51;102176.03;5034298;28;20436;-55
2022/11/27 05:26:20;;;;;;;9.43;4.47;;;;;;;4.63;95.51;102178.63;5033165;28;20046;-52
2022/11/27 05:28:45;;;;;;;8.18;4.30;;;;;;;4.64;95.43;102188.22;5033437;28;20032;-53
2022/11/27 05:31:10;;;;;;;13.02;3.90;;;;;;;4.66;95.55;102172.38;5033357;28;20029;-52
2022/11/27 05:33:36;;;;;;;8.23;3.83;;;;;;;4.66;95.73;102181.13;5034179;28;20524;-49
2022/11/27 05:36:01;;;;;;;8.85;4.30;;;;;;;4.66;95.49;102177.63;5027603;28;20026;-55
2022/11/27 05:38:26;;;;;;;10.48;4.30;;;;;;;4.67;95.47;102168.84;5034045;28;20017;-52
2022/11/27 05:40:51;;;;;;;9.50;4.10;;;;;;;4.67;95.63;102168.84;5033292;28;20478;-53
2022/11/27 05:43:17;;;;;;;11.57;4.75;;;;;;;4.68;95.59;102167.91;5039980;28;20058;-52
2022/11/27 05:45:42;;;;;;;15.07;5.20;;;;;;;4.70;95.48;102155.59;5033118;28;20029;-52
2022/11/27 05:48:07;;;;;;;8.20;4.25;;;;;;;4.68;95.66;102152.13;5033504;28;20034;-52
2022/11/27 05:50:33;;;;;;;11.10;4.43;;;;;;;4.67;95.59;102143.38;5033538;28;20383;-52
2022/11/27 05:52:58;;;;;;;10.60;4.03;;;;;;;4.68;95.57;102144.22;5033820;28;20037;-51
2022/11/27 05:55:23;;;;;;;11.65;4.75;;;;;;;4.69;95.65;102145.97;5032966;28;20097;-52
2022/11/27 05:57:48;;;;;;;9.52;4.35;;;;;;;4.69;95.52;102145.97;5033236;28;20033;-55
2022/11/27 06:00:14;;;;;;;8.32;4.35;;;;;;;4.68;95.36;102137.22;5033251;28;20025;-55
2022/11/27 06:02:40;;;;;;;10.43;4.35;;;;;;;4.69;95.50;102143.34;5032937;28;20041;-53
2022/11/27 06:05:06;;;;;;;8.43;4.15;;;;;;;4.70;95.57;102137.19;5036676;28;20029;-53
2022/11/27 06:07:31;;;;;;;9.15;4.25;;;;;;;4.69;95.58;102138.94;5023782;28;20030;-54
2022/11/27 06:09:56;;;;;;;10.07;4.20;;;;;;;4.70;95.54;102137.19;5031039;28;20041;-52
2022/11/27 06:12:22;;;;;;;10.48;4.10;;;;;;;4.70;95.47;102137.19;5032683;28;20041;-56
2022/11/27 06:14:47;;;;;;;9.13;4.50;;;;;;;4.70;95.49;102132.75;5029499;28;20039;-52
2022/11/27 06:17:15;;;;;;;9.40;4.50;;;;;;;4.71;95.55;102134.47;5036195;28;20041;-55
2022/11/27 06:19:41;;;;;;;7.80;4.28;;;;;;;4.71;95.66;102131.84;5033647;28;20486;-54
2022/11/27 06:22:07;;;;;;;10.88;4.38;;;;;;;4.73;95.62;102134.41;5032620;28;20080;-54
2022/11/27 06:24:32;;;;;;;8.23;3.60;;;;;;;4.73;95.53;102137.06;5041498;28;20467;-55
2022/11/27 06:26:57;;;;;;;10.63;4.75;;;;;;;4.73;95.84;102134.41;5033393;28;20045;-53
2022/11/27 06:29:23;;;;;;;8.27;4.18;;;;;;;4.73;95.76;102119.50;5032714;28;20037;-52
2022/11/27 06:31:48;;;;;;;6.55;4.40;;;;;;;4.73;95.82;102121.25;5035205;28;20427;-51
2022/11/27 06:34:13;;;;;;;11.57;4.70;;;;;;;4.74;95.81;102125.63;5032735;28;20043;-52
2022/11/27 06:36:39;;;;;;;8.98;4.07;;;;;;;4.73;96.06;102130.03;5028104;28;20048;-53
2022/11/27 06:39:06;;;;;;;11.23;3.83;;;;;;;4.74;96.31;102129.13;5030441;28;20029;-54
2022/11/27 06:41:32;;;;;;;8.82;4.30;;;;;;;4.73;96.44;102130.03;5032845;28;20438;-53
2022/11/27 06:43:58;;;;;;;13.60;4.60;;;;;;;4.73;96.88;102126.53;5032641;28;20025;-52
2022/11/27 06:46:24;;;;;;;11.00;4.15;;;;;;;4.72;97.13;102130.09;5032769;28;20464;-53
2022/11/27 06:48:51;;;;;;;8.60;4.22;;;;;;;4.74;97.69;102128.25;5032207;28;20064;-55
2022/11/27 06:51:19;;;;;;;10.90;4.25;;;;;;;4.73;97.66;102126.53;5033041;28;20056;-53
2022/11/27 06:53:44;;;;;;;11.45;4.63;;;;;;;4.73;98.19;102116.00;5043508;28;20074;-55
2022/11/27 06:56:16;;;;;;;11.70;4.78;;;;;;;4.73;98.40;102114.25;5034393;28;20459;-54
2022/11/27 06:58:41;;;;;;;12.88;4.72;;;;;;;4.73;98.26;102108.09;5025429;28;20388;-53
2022/11/27 07:01:10;;;;;;;9.27;4.25;;;;;;;4.72;98.76;102109.03;5041023;28;20037;-55
2022/11/27 07:03:36;;;;;;;9.02;4.38;;;;;;;4.72;99.03;102102.00;5042372;28;20033;-51
2022/11/27 07:06:03;;;;;;;10.10;4.40;;;;;;;4.72;99.36;102104.63;5028849;28;20037;-51
2022/11/27 07:08:30;;;;;;;9.27;4.22;;;;;;;4.72;99.48;102093.25;5036999;28;20017;-56
2022/11/27 07:11:11;;;;;;;8.43;4.53;;;;;;;4.73;100.00;102087.03;5031810;28;20117;-53
2022/11/27 07:13:37;;;;;;;8.68;4.65;;;;;;;4.72;100.00;102080.94;5023876;28;20112;-53
2022/11/27 07:16:07;;;;;;;11.30;4.75;;;;;;;4.73;100.00;102073.88;5039717;28;20117;-54
2022/11/27 07:18:38;;;;;;;10.90;4.63;;;;;;;4.73;100.00;102063.34;5040123;28;20035;-52
2022/11/27 07:21:04;;;;;;;11.55;4.63;;;;;;;4.74;100.00;102073.00;5032764;28;20091;-52
2022/11/27 07:23:30;;;;;;;9.32;4.25;;;;;;;4.74;100.00;102065.09;5032667;28;20026;-55
2022/11/27 07:25:56;;;;;;;8.90;3.75;;;;;;;4.73;100.00;102066.88;5031411;28;20077;-53
2022/11/27 07:28:21;;;;;;;10.10;4.78;;;;;;;4.73;100.00;102058.97;5041581;28;20013;-55
2022/11/27 07:30:57;;;;;;;8.40;4.20;;;;;;;4.74;100.00;102063.31;5034621;28;20068;-52
2022/11/27 07:33:23;;;;;;;9.13;4.70;;;;;;;4.74;100.00;102058.06;5028675;28;20403;-52
2022/11/27 07:35:49;;;;;;;11.20;4.20;;;;;;;4.74;100.00;102052.78;5029793;28;20040;-53
2022/11/27 07:38:14;;;;;;;11.90;4.63;;;;;;;4.75;100.00;102051.03;5025852;28;20469;-51
2022/11/27 07:40:39;;;;;;;14.95;5.20;;;;;;;4.77;100.00;102049.22;5029521;28;20095;-52
2022/11/27 07:43:04;;;;;;;9.88;4.60;;;;;;;4.77;100.00;102046.56;5028985;28;20042;-52
2022/11/27 07:45:30;;;;;;;9.77;4.43;;;;;;;4.79;100.00;102047.38;5028001;28;20463;-55
2022/11/27 07:47:55;;;;;;;11.30;4.70;;;;;;;4.79;100.00;102042.97;5025366;28;20494;-54
2022/11/27 07:50:20;;;;;;;10.13;4.68;;;;;;;4.80;100.00;102039.44;5026120;28;20075;-53
2022/11/27 07:52:46;;;;;;;10.65;4.80;;;;;;;4.80;100.00;102028.91;5028004;28;20120;-52
2022/11/27 07:55:11;;;;;;;12.73;4.90;;;;;;;4.80;100.00;102022.78;5027556;28;20090;-52
2022/11/27 07:57:37;;;;;;;12.60;4.88;;;;;;;4.80;100.00;102010.47;5027393;28;20445;-51
2022/11/27 08:00:03;;;;;;;11.52;5.35;;;;;;;4.81;100.00;102009.56;5027098;28;20491;-51
2022/11/27 08:02:29;;;;;;;11.02;4.28;;;;;;;4.82;100.00;102021.81;5029160;28;20403;-51
2022/11/27 08:04:54;;;;;;;8.07;4.75;;;;;;;4.82;100.00;102015.69;5032045;28;20033;-51
2022/11/27 08:07:19;;;;;;;10.45;5.18;;;;;;;4.83;100.00;102009.53;5029684;28;20049;-51
2022/11/27 08:09:44;;;;;;;8.82;5.07;;;;;;;4.82;100.00;102007.78;5033741;28;20364;-50
2022/11/27 08:12:10;;;;;;;10.63;5.30;;;;;;;4.84;100.00;102007.75;5030059;28;20037;-54
2022/11/27 08:14:35;;;;;;;9.48;5.05;;;;;;;4.84;100.00;102003.34;5032817;28;20028;-54
2022/11/27 08:17:00;;;;;;;13.13;5.07;;;;;;;4.88;100.00;102011.97;5028913;28;20336;-55
2022/11/27 08:19:26;;;;;;;11.13;5.47;;;;;;;4.89;100.00;102017.19;5030645;28;20037;-53
2022/11/27 08:21:51;;;;;;;10.52;5.30;;;;;;;4.87;100.00;102013.75;5028918;28;20021;-51
2022/11/27 08:24:16;;;;;;;10.38;5.43;;;;;;;4.89;100.00;102006.66;5031318;28;20026;-54
2022/11/27 08:26:42;;;;;;;14.45;5.55;;;;;;;4.92;100.00;102010.97;5033190;28;20496;-48
2022/11/27 08:29:10;;;;;;;10.60;5.47;;;;;;;4.94;100.00;102010.00;5032696;28;20031;-52
2022/11/27 08:31:36;;;;;;;12.18;5.45;;;;;;;4.95;100.00;102011.72;5034230;28;20368;-51
2022/11/27 08:34:01;;;;;;;11.57;5.38;;;;;;;4.97;100.00;102009.06;5027910;28;20080;-53
2022/11/27 08:36:26;;;;;;;12.88;5.60;;;;;;;4.98;100.00;102014.25;5031216;28;20017;-55
2022/11/27 08:38:54;;;;;;;12.27;5.75;;;;;;;4.99;100.00;102010.69;5032780;28;20056;-51
2022/11/27 08:41:19;;;;;;;12.75;5.90;;;;;;;5.02;100.00;102008.91;5030237;28;20037;-55
2022/11/27 08:43:45;;;;;;;8.93;5.53;;;;;;;5.03;100.00;102008.84;5002992;28;20037;-55
2022/11/27 08:46:10;;;;;;;11.77;6.18;;;;;;;5.04;100.00;102007.91;5045730;28;21290;-55
2022/11/27 08:48:36;;;;;;;12.43;6.50;;;;;;;5.05;100.00;101996.47;5038725;28;20029;-53
2022/11/27 08:51:13;;;;;;;13.52;5.53;;;;;;;5.08;100.00;101999.00;5033767;28;20091;-51
2022/11/27 08:53:38;;;;;;;10.13;6.03;;;;;;;5.09;100.00;102011.25;5033463;28;20076;-53
2022/11/27 08:56:15;;;;;;;13.30;6.20;;;;;;;5.10;100.00;102010.34;5033580;28;20060;-54
2022/11/27 08:58:41;;;;;;;11.27;5.97;;;;;;;5.11;100.00;102008.56;5035023;28;20034;-54
2022/11/27 09:01:14;;;;;;;11.68;6.05;;;;;;;5.13;100.00;102009.34;5030169;28;20021;-52
2022/11/27 09:03:39;;;;;;;17.23;6.68;;;;;;;5.14;100.00;102011.09;5030202;28;20025;-51
2022/11/27 09:06:13;;;;;;;13.70;6.68;;;;;;;5.15;100.00;102004.91;5033130;28;20044;-54
2022/11/27 09:08:40;;;;;;;9.85;6.65;;;;;;;5.18;100.00;102005.66;5032377;28;20475;-54
2022/11/27 09:11:06;;;;;;;13.88;7.05;;;;;;;5.19;100.00;102009.16;5031898;28;20022;-52
2022/11/27 09:13:35;;;;;;;12.82;7.10;;;;;;;5.20;100.00;102000.34;5032235;28;20089;-55
2022/11/27 09:16:00;;;;;;;13.05;7.10;;;;;;;5.24;100.00;102007.22;5031846;28;20517;-51
2022/11/27 09:18:26;;;;;;;16.45;7.05;;;;;;;5.24;100.00;102004.59;5031274;28;20033;-52
2022/11/27 09:20:56;;;;;;;12.98;7.55;;;;;;;5.27;100.00;102004.47;5034244;28;20061;-54
2022/11/27 09:23:21;;;;;;;9.82;6.70;;;;;;;5.29;100.00;102001.78;5030768;28;20044;-56
2022/11/27 09:25:48;;;;;;;15.25;7.53;;;;;;;5.29;100.00;102004.41;5032164;28;20057;-52
2022/11/27 09:28:13;;;;;;;14.05;7.00;;;;;;;5.30;100.00;101990.34;5032134;28;20117;-53
2022/11/27 09:30:39;;;;;;;16.17;7.97;;;;;;;5.32;100.00;101999.91;5030017;28;20116;-54
2022/11/27 09:33:04;;;;;;;15.50;7.93;;;;;;;5.34;100.00;102002.47;5031329;28;20037;-55
2022/11/27 09:35:29;;;;;;;13.77;8.15;;;;;;;5.35;100.00;102006.84;5030476;28;20071;-54
2022/11/27 09:37:55;;;;;;;15.23;7.85;;;;;;;5.34;100.00;101998.06;5030463;28;20041;-54
2022/11/27 09:40:20;;;;;;;14.63;8.25;;;;;;;5.38;100.00;101999.69;5029055;28;20049;-57
2022/11/27 09:43:05;;;;;;;13.20;8.52;;;;;;;5.41;100.00;101996.06;5029655;28;20033;-56
2022/11/27 09:45:30;;;;;;;13.85;8.50;;;;;;;5.42;100.00;101989.03;5021071;28;20108;-55
2022/11/27 09:48:04;;;;;;;15.10;8.63;;;;;;;5.45;100.00;101994.19;5026185;28;20108;-55
2022/11/27 09:50:35;;;;;;;13.45;8.82;;;;;;;5.45;100.00;101988.94;5029428;28;20289;-52
2022/11/27 09:53:26;;;;;;;15.52;8.45;;;;;;;5.49;100.00;101980.84;5026323;28;20029;-55
2022/11/27 09:55:55;;;;;;;13.70;7.70;;;;;;;5.49;100.00;101977.34;5031454;28;20026;-56
2022/11/27 09:58:41;;;;;;;13.88;8.65;;;;;;;5.52;100.00;101970.19;5031581;28;20029;-53
2022/11/27 10:01:17;;;;;;;12.00;8.75;;;;;;;5.55;100.00;101974.50;5029891;28;20033;-54
2022/11/27 10:03:44;;;;;;;14.82;8.35;;;;;;;5.57;100.00;101964.75;5033593;28;20033;-52
2022/11/27 10:06:15;;;;;;;17.75;8.73;;;;;;;5.59;100.00;101965.53;5029144;28;20026;-54
2022/11/27 10:09:01;;;;;;;14.88;9.05;;;;;;;5.62;100.00;101960.16;5030663;28;20029;-52
2022/11/27 10:11:31;;;;;;;11.88;8.68;;;;;;;5.64;100.00;101962.75;5031651;28;20038;-54
2022/11/27 10:14:29;;;;;;;18.15;9.68;;;;;;;5.65;100.00;101957.41;5028555;28;20067;-52
2022/11/27 10:17:08;;;;;;;16.38;9.25;;;;;;;5.69;100.00;101950.25;5011686;28;20100;-54
2022/11/27 10:20:04;;;;;;;14.55;8.40;;;;;;;5.70;100.00;101946.69;5030176;28;20064;-53
2022/11/27 10:22:45;;;;;;;13.73;8.65;;;;;;;5.72;100.00;101935.16;5030508;28;20079;-54
2022/11/27 10:25:20;;;;;;;14.18;8.88;;;;;;;5.75;100.00;101924.50;5031511;28;20428;-56
2022/11/27 10:27:56;;;;;;;19.10;9.65;;;;;;;5.78;100.00;101923.53;5024517;28;20042;-55
2022/11/27 10:30:22;;;;;;;15.95;9.07;;;;;;;5.82;100.00;101932.19;5031411;28;20451;-56
2022/11/27 10:32:53;;;;;;;18.65;9.40;;;;;;;5.84;100.00;101932.97;5034140;28;20104;-53
2022/11/27 10:35:22;;;;;;;15.13;8.82;;;;;;;5.87;100.00;101925.78;5028947;28;20029;-56
2022/11/27 10:38:02;;;;;;;14.13;8.27;;;;;;;5.88;100.00;101916.97;5028130;28;20030;-55
2022/11/27 10:40:37;;;;;;;13.73;8.48;;;;;;;5.92;100.00;101915.94;5028127;28;20040;-54
2022/11/27 10:43:17;;;;;;;13.80;8.77;;;;;;;5.95;100.00;101912.31;5026272;28;20483;-53
2022/11/27 10:45:59;;;;;;;12.90;7.95;;;;;;;5.96;100.00;101910.53;5028032;28;20030;-56
2022/11/27 10:48:26;;;;;;;17.58;9.23;;;;;;;5.98;100.00;101903.44;5030408;28;20467;-52
2022/11/27 10:50:51;;;;;;;14.75;8.57;;;;;;;5.98;100.00;101903.44;5032048;28;20534;-56
2022/11/27 10:53:32;;;;;;;13.55;8.40;;;;;;;6.00;100.00;101904.25;5016243;28;20125;-55
2022/11/27 10:56:14;;;;;;;13.73;8.07;;;;;;;6.00;100.00;101902.47;5024700;28;20068;-53
2022/11/27 10:58:56;;;;;;;13.27;8.18;;;;;;;6.00;100.00;101894.56;5029049;28;20041;-54
2022/11/27 11:01:23;;;;;;;15.15;8.18;;;;;;;6.00;100.00;101891.94;5025883;28;20502;-56
2022/11/27 11:03:49;;;;;;;14.20;8.82;;;;;;;6.02;100.00;101884.81;5029541;28;20064;-56
2022/11/27 11:06:23;;;;;;;17.98;8.63;;;;;;;6.03;100.00;101875.97;5032894;28;20483;-53
2022/11/27 11:09:04;;;;;;;15.05;8.48;;;;;;;6.05;100.00;101875.91;5037520;28;20072;-53
2022/11/27 11:11:30;;;;;;;14.68;8.43;;;;;;;6.07;100.00;101874.91;5028166;28;20037;-55
2022/11/27 11:13:55;;;;;;;15.15;8.73;;;;;;;6.07;100.00;101867.00;5032934;28;20515;-53
2022/11/27 11:16:23;;;;;;;14.63;8.43;;;;;;;6.09;100.00;101854.59;5031051;28;20075;-53
2022/11/27 11:18:54;;;;;;;10.70;7.97;;;;;;;6.13;100.00;101857.13;5027757;28;20025;-55
2022/11/27 11:21:22;;;;;;;14.30;8.50;;;;;;;6.12;100.00;101858.91;5030353;28;20041;-56
2022/11/27 11:24:02;;;;;;;14.05;8.90;;;;;;;6.15;100.00;101845.59;5027380;28;20029;-56
2022/11/27 11:26:36;;;;;;;13.88;8.48;;;;;;;6.16;100.00;101849.09;5030889;28;20045;-56
2022/11/27 11:29:05;;;;;;;12.90;8.32;;;;;;;6.18;100.00;101844.59;5022180;28;20077;-56
2022/11/27 11:31:37;;;;;;;14.43;9.00;;;;;;;6.21;100.00;101840.06;5026819;28;20041;-56
2022/11/27 11:34:13;;;;;;;13.80;7.88;;;;;;;6.18;100.00;101829.66;5027144;28;20496;-54